Aviation Digital Data Service (ADDS)

Output produced by METARs form (1812 UTC 19 August 2019)
found at http://www.aviationweather.gov/metar/data/
 
METAR text: UTSK 191800Z 35008KT CAVOK 25/09 Q1012 R16/CLRD70
Conditions at: UTSK (KARSHI KHANABAD , UZ) observed 1800 UTC 19 August 2019
Temperature: 25.0°C (77°F)
Dewpoint: 9.0°C (48°F) [RH = 36%]
Pressure (altimeter): 29.88 inches Hg (1012.0 mb)
Winds: from the N (350 degrees) at 9 MPH (8 knots; 4.1 m/s)
Visibility: 6 or more miles (10+ km)
Ceiling: ceiling and visibility are OK
Clouds: unknown
Weather: no significant weather observed at this time

METAR text: UTSK 191700Z 35008KT CAVOK 27/08 Q1012 R16/CLRD70
Conditions at: UTSK (KARSHI KHANABAD , UZ) observed 1700 UTC 19 August 2019
Temperature: 27.0°C (81°F)
Dewpoint: 8.0°C (46°F) [RH = 30%]
Pressure (altimeter): 29.88 inches Hg (1012.0 mb)
Winds: from the N (350 degrees) at 9 MPH (8 knots; 4.1 m/s)
Visibility: 6 or more miles (10+ km)
Ceiling: ceiling and visibility are OK
Clouds: unknown
Weather: no significant weather observed at this time

METAR text: UTSK 191600Z 36006KT CAVOK 29/07 Q1012 R16/CLRD70
Conditions at: UTSK (KARSHI KHANABAD , UZ) observed 1600 UTC 19 August 2019
Temperature: 29.0°C (84°F)
Dewpoint: 7.0°C (45°F) [RH = 25%]
Pressure (altimeter): 29.88 inches Hg (1012.0 mb)
Winds: from the N (360 degrees) at 7 MPH (6 knots; 3.1 m/s)
Visibility: 6 or more miles (10+ km)
Ceiling: ceiling and visibility are OK
Clouds: unknown
Weather: no significant weather observed at this time

METAR text: UTSK 191500Z 01008KT CAVOK 30/07 Q1012 R16/CLRD70
Conditions at: UTSK (KARSHI KHANABAD , UZ) observed 1500 UTC 19 August 2019
Temperature: 30.0°C (86°F)
Dewpoint: 7.0°C (45°F) [RH = 24%]
Pressure (altimeter): 29.88 inches Hg (1012.0 mb)
Winds: from the N (10 degrees) at 9 MPH (8 knots; 4.1 m/s)
Visibility: 6 or more miles (10+ km)
Ceiling: ceiling and visibility are OK
Clouds: unknown
Weather: no significant weather observed at this time

METAR text: UTSK 191400Z 31004KT CAVOK 31/07 Q1012 R16/CLRD70
Conditions at: UTSK (KARSHI KHANABAD , UZ) observed 1400 UTC 19 August 2019
Temperature: 31.0°C (88°F)
Dewpoint: 7.0°C (45°F) [RH = 22%]
Pressure (altimeter): 29.88 inches Hg (1012.0 mb)
Winds: from the NW (310 degrees) at 5 MPH (4 knots; 2.1 m/s)
Visibility: 6 or more miles (10+ km)
Ceiling: ceiling and visibility are OK
Clouds: unknown
Weather: no significant weather observed at this time

METAR text: UTSK 191300Z 31008KT CAVOK 34/04 Q1012 R16/CLRD70
Conditions at: UTSK (KARSHI KHANABAD , UZ) observed 1300 UTC 19 August 2019
Temperature: 34.0°C (93°F)
Dewpoint: 4.0°C (39°F) [RH = 15%]
Pressure (altimeter): 29.88 inches Hg (1012.0 mb)
Winds: from the NW (310 degrees) at 9 MPH (8 knots; 4.1 m/s)
Visibility: 6 or more miles (10+ km)
Ceiling: ceiling and visibility are OK
Clouds: unknown
Weather: no significant weather observed at this time

METAR text: UTSK 191200Z 31008KT CAVOK 35/04 Q1012 R16/CLRD70
Conditions at: UTSK (KARSHI KHANABAD , UZ) observed 1200 UTC 19 August 2019
Temperature: 35.0°C (95°F)
Dewpoint: 4.0°C (39°F) [RH = 14%]
Pressure (altimeter): 29.88 inches Hg (1012.0 mb)
Winds: from the NW (310 degrees) at 9 MPH (8 knots; 4.1 m/s)
Visibility: 6 or more miles (10+ km)
Ceiling: ceiling and visibility are OK
Clouds: unknown
Weather: no significant weather observed at this time

METAR text: UTSK 191100Z 33008KT 270V350 CAVOK 35/05 Q1012 R16/CLRD70
Conditions at: UTSK (KARSHI KHANABAD , UZ) observed 1100 UTC 19 August 2019
Temperature: 35.0°C (95°F)
Dewpoint: 5.0°C (41°F) [RH = 16%]
Pressure (altimeter): 29.88 inches Hg (1012.0 mb)
Winds: from the NNW (330 degrees) at 9 MPH (8 knots; 4.1 m/s)
Visibility: 6 or more miles (10+ km)
Ceiling: ceiling and visibility are OK
Clouds: unknown
Weather: no significant weather observed at this time

METAR text: UTSK 191000Z 27008KT 240V300 CAVOK 35/04 Q1012 R16/CLRD70
Conditions at: UTSK (KARSHI KHANABAD , UZ) observed 1000 UTC 19 August 2019
Temperature: 35.0°C (95°F)
Dewpoint: 4.0°C (39°F) [RH = 14%]
Pressure (altimeter): 29.88 inches Hg (1012.0 mb)
Winds: from the W (270 degrees) at 9 MPH (8 knots; 4.1 m/s)
Visibility: 6 or more miles (10+ km)
Ceiling: ceiling and visibility are OK
Clouds: unknown
Weather: no significant weather observed at this time

METAR text: UTSK 190900Z 31004KT 250V350 CAVOK 35/07 Q1012 R16/CLRD70
Conditions at: UTSK (KARSHI KHANABAD , UZ) observed 0900 UTC 19 August 2019
Temperature: 35.0°C (95°F)
Dewpoint: 7.0°C (45°F) [RH = 18%]
Pressure (altimeter): 29.88 inches Hg (1012.0 mb)
Winds: from the NW (310 degrees) at 5 MPH (4 knots; 2.1 m/s)
Visibility: 6 or more miles (10+ km)
Ceiling: ceiling and visibility are OK
Clouds: unknown
Weather: no significant weather observed at this time

METAR text: UTSK 190830Z 19004KT CAVOK 34/07 Q1013 R16/CLRD70
Conditions at: UTSK (KARSHI KHANABAD , UZ) observed 0830 UTC 19 August 2019
Temperature: 34.0°C (93°F)
Dewpoint: 7.0°C (45°F) [RH = 19%]
Pressure (altimeter): 29.91 inches Hg (1013.0 mb)
Winds: from the S (190 degrees) at 5 MPH (4 knots; 2.1 m/s)
Visibility: 6 or more miles (10+ km)
Ceiling: ceiling and visibility are OK
Clouds: unknown
Weather: no significant weather observed at this time

METAR text: UTSK 190800Z 30004KT 240V350 CAVOK 33/06 Q1013 R16/CLRD70
Conditions at: UTSK (KARSHI KHANABAD , UZ) observed 0800 UTC 19 August 2019
Temperature: 33.0°C (91°F)
Dewpoint: 6.0°C (43°F) [RH = 19%]
Pressure (altimeter): 29.91 inches Hg (1013.0 mb)
Winds: from the WNW (300 degrees) at 5 MPH (4 knots; 2.1 m/s)
Visibility: 6 or more miles (10+ km)
Ceiling: ceiling and visibility are OK
Clouds: unknown
Weather: no significant weather observed at this time

METAR text: UTSK 190730Z 22004KT CAVOK 32/09 Q1013 R16/CLRD70
Conditions at: UTSK (KARSHI KHANABAD , UZ) observed 0730 UTC 19 August 2019
Temperature: 32.0°C (90°F)
Dewpoint: 9.0°C (48°F) [RH = 24%]
Pressure (altimeter): 29.91 inches Hg (1013.0 mb)
Winds: from the SW (220 degrees) at 5 MPH (4 knots; 2.1 m/s)
Visibility: 6 or more miles (10+ km)
Ceiling: ceiling and visibility are OK
Clouds: unknown
Weather: no significant weather observed at this time

METAR text: UTSK 190700Z 25004KT CAVOK 32/08 Q1013 R16/CLRD70
Conditions at: UTSK (KARSHI KHANABAD , UZ) observed 0700 UTC 19 August 2019
Temperature: 32.0°C (90°F)
Dewpoint: 8.0°C (46°F) [RH = 23%]
Pressure (altimeter): 29.91 inches Hg (1013.0 mb)
Winds: from the WSW (250 degrees) at 5 MPH (4 knots; 2.1 m/s)
Visibility: 6 or more miles (10+ km)
Ceiling: ceiling and visibility are OK
Clouds: unknown
Weather: no significant weather observed at this time

METAR text: UTSK 190630Z 21004KT 150V260 CAVOK 31/08 Q1013 R16/CLRD70
Conditions at: UTSK (KARSHI KHANABAD , UZ) observed 0630 UTC 19 August 2019
Temperature: 31.0°C (88°F)
Dewpoint: 8.0°C (46°F) [RH = 24%]
Pressure (altimeter): 29.91 inches Hg (1013.0 mb)
Winds: from the SSW (210 degrees) at 5 MPH (4 knots; 2.1 m/s)
Visibility: 6 or more miles (10+ km)
Ceiling: ceiling and visibility are OK
Clouds: unknown
Weather: no significant weather observed at this time

METAR text: UTSK 190600Z 17004KT 090V260 CAVOK 31/08 Q1013 R16/CLRD70
Conditions at: UTSK (KARSHI KHANABAD , UZ) observed 0600 UTC 19 August 2019
Temperature: 31.0°C (88°F)
Dewpoint: 8.0°C (46°F) [RH = 24%]
Pressure (altimeter): 29.91 inches Hg (1013.0 mb)
Winds: from the S (170 degrees) at 5 MPH (4 knots; 2.1 m/s)
Visibility: 6 or more miles (10+ km)
Ceiling: ceiling and visibility are OK
Clouds: unknown
Weather: no significant weather observed at this time

METAR text: UTSK 190530Z 13004KT 080V170 CAVOK 29/07 Q1013 R16/CLRD70
Conditions at: UTSK (KARSHI KHANABAD , UZ) observed 0530 UTC 19 August 2019
Temperature: 29.0°C (84°F)
Dewpoint: 7.0°C (45°F) [RH = 25%]
Pressure (altimeter): 29.91 inches Hg (1013.0 mb)
Winds: from the SE (130 degrees) at 5 MPH (4 knots; 2.1 m/s)
Visibility: 6 or more miles (10+ km)
Ceiling: ceiling and visibility are OK
Clouds: unknown
Weather: no significant weather observed at this time

METAR text: UTSK 190500Z VRB02KT CAVOK 29/07 Q1013 R16/CLRD70
Conditions at: UTSK (KARSHI KHANABAD , UZ) observed 0500 UTC 19 August 2019
Temperature: 29.0°C (84°F)
Dewpoint: 7.0°C (45°F) [RH = 25%]
Pressure (altimeter): 29.91 inches Hg (1013.0 mb)
Winds: variable direction winds at 2 MPH (2 knots; 1.0 m/s)
Visibility: 6 or more miles (10+ km)
Ceiling: ceiling and visibility are OK
Clouds: unknown
Weather: no significant weather observed at this time

METAR text: UTSK 190430Z VRB02KT CAVOK 27/08 Q1013 R16/CLRD70
Conditions at: UTSK (KARSHI KHANABAD , UZ) observed 0430 UTC 19 August 2019
Temperature: 27.0°C (81°F)
Dewpoint: 8.0°C (46°F) [RH = 30%]
Pressure (altimeter): 29.91 inches Hg (1013.0 mb)
Winds: variable direction winds at 2 MPH (2 knots; 1.0 m/s)
Visibility: 6 or more miles (10+ km)
Ceiling: ceiling and visibility are OK
Clouds: unknown
Weather: no significant weather observed at this time

METAR text: UTSK 190400Z VRB02KT CAVOK 27/08 Q1013 R16/CLRD70
Conditions at: UTSK (KARSHI KHANABAD , UZ) observed 0400 UTC 19 August 2019
Temperature: 27.0°C (81°F)
Dewpoint: 8.0°C (46°F) [RH = 30%]
Pressure (altimeter): 29.91 inches Hg (1013.0 mb)
Winds: variable direction winds at 2 MPH (2 knots; 1.0 m/s)
Visibility: 6 or more miles (10+ km)
Ceiling: ceiling and visibility are OK
Clouds: unknown
Weather: no significant weather observed at this time

METAR text: UTSK 190330Z 05006KT CAVOK 24/07 Q1012 R16/CLRD70
Conditions at: UTSK (KARSHI KHANABAD , UZ) observed 0330 UTC 19 August 2019
Temperature: 24.0°C (75°F)
Dewpoint: 7.0°C (45°F) [RH = 34%]
Pressure (altimeter): 29.88 inches Hg (1012.0 mb)
Winds: from the NE (50 degrees) at 7 MPH (6 knots; 3.1 m/s)
Visibility: 6 or more miles (10+ km)
Ceiling: ceiling and visibility are OK
Clouds: unknown
Weather: no significant weather observed at this time

METAR text: UTSK 190300Z 05004KT 020V080 CAVOK 24/07 Q1012 R16/CLRD70
Conditions at: UTSK (KARSHI KHANABAD , UZ) observed 0300 UTC 19 August 2019
Temperature: 24.0°C (75°F)
Dewpoint: 7.0°C (45°F) [RH = 34%]
Pressure (altimeter): 29.88 inches Hg (1012.0 mb)
Winds: from the NE (50 degrees) at 5 MPH (4 knots; 2.1 m/s)
Visibility: 6 or more miles (10+ km)
Ceiling: ceiling and visibility are OK
Clouds: unknown
Weather: no significant weather observed at this time

METAR text: UTSK 190230Z 06002KT CAVOK 19/07 Q1012 R16/CLRD70
Conditions at: UTSK (KARSHI KHANABAD , UZ) observed 0230 UTC 19 August 2019
Temperature: 19.0°C (66°F)
Dewpoint: 7.0°C (45°F) [RH = 46%]
Pressure (altimeter): 29.88 inches Hg (1012.0 mb)
Winds: from the ENE (60 degrees) at 2 MPH (2 knots; 1.0 m/s)
Visibility: 6 or more miles (10+ km)
Ceiling: ceiling and visibility are OK
Clouds: unknown
Weather: no significant weather observed at this time

METAR text: UTSK 190130Z 01004KT CAVOK 18/06 Q1011 R16/CLRD70
Conditions at: UTSK (KARSHI KHANABAD , UZ) observed 0130 UTC 19 August 2019
Temperature: 18.0°C (64°F)
Dewpoint: 6.0°C (43°F) [RH = 45%]
Pressure (altimeter): 29.85 inches Hg (1011.0 mb)
Winds: from the N (10 degrees) at 5 MPH (4 knots; 2.1 m/s)
Visibility: 6 or more miles (10+ km)
Ceiling: ceiling and visibility are OK
Clouds: unknown
Weather: no significant weather observed at this time

METAR text: UTSK 190100Z 36006KT CAVOK 18/06 Q1011 R16/CLRD70
Conditions at: UTSK (KARSHI KHANABAD , UZ) observed 0100 UTC 19 August 2019
Temperature: 18.0°C (64°F)
Dewpoint: 6.0°C (43°F) [RH = 45%]
Pressure (altimeter): 29.85 inches Hg (1011.0 mb)
Winds: from the N (360 degrees) at 7 MPH (6 knots; 3.1 m/s)
Visibility: 6 or more miles (10+ km)
Ceiling: ceiling and visibility are OK
Clouds: unknown
Weather: no significant weather observed at this time

METAR text: UTSK 190030Z 35006KT CAVOK 16/06 Q1011 R16/CLRD70
Conditions at: UTSK (KARSHI KHANABAD , UZ) observed 0030 UTC 19 August 2019
Temperature: 16.0°C (61°F)
Dewpoint: 6.0°C (43°F) [RH = 51%]
Pressure (altimeter): 29.85 inches Hg (1011.0 mb)
Winds: from the N (350 degrees) at 7 MPH (6 knots; 3.1 m/s)
Visibility: 6 or more miles (10+ km)
Ceiling: ceiling and visibility are OK
Clouds: unknown
Weather: no significant weather observed at this time

METAR text: UTSK 190000Z 35006KT CAVOK 17/06 Q1011 R16/CLRD70
Conditions at: UTSK (KARSHI KHANABAD , UZ) observed 0000 UTC 19 August 2019
Temperature: 17.0°C (63°F)
Dewpoint: 6.0°C (43°F) [RH = 48%]
Pressure (altimeter): 29.85 inches Hg (1011.0 mb)
Winds: from the N (350 degrees) at 7 MPH (6 knots; 3.1 m/s)
Visibility: 6 or more miles (10+ km)
Ceiling: ceiling and visibility are OK
Clouds: unknown
Weather: no significant weather observed at this time

METAR text: UTSK 182300Z 36004KT CAVOK 18/06 Q1011 R16/CLRD70
Conditions at: UTSK (KARSHI KHANABAD , UZ) observed 2300 UTC 18 August 2019
Temperature: 18.0°C (64°F)
Dewpoint: 6.0°C (43°F) [RH = 45%]
Pressure (altimeter): 29.85 inches Hg (1011.0 mb)
Winds: from the N (360 degrees) at 5 MPH (4 knots; 2.1 m/s)
Visibility: 6 or more miles (10+ km)
Ceiling: ceiling and visibility are OK
Clouds: unknown
Weather: no significant weather observed at this time

METAR text: UTSK 182230Z 36004KT CAVOK 20/05 Q1011 R16/CLRD70
Conditions at: UTSK (KARSHI KHANABAD , UZ) observed 2230 UTC 18 August 2019
Temperature: 20.0°C (68°F)
Dewpoint: 5.0°C (41°F) [RH = 37%]
Pressure (altimeter): 29.85 inches Hg (1011.0 mb)
Winds: from the N (360 degrees) at 5 MPH (4 knots; 2.1 m/s)
Visibility: 6 or more miles (10+ km)
Ceiling: ceiling and visibility are OK
Clouds: unknown
Weather: no significant weather observed at this time

METAR text: UTSK 182200Z 01004KT CAVOK 20/05 Q1011 R16/CLRD70
Conditions at: UTSK (KARSHI KHANABAD , UZ) observed 2200 UTC 18 August 2019
Temperature: 20.0°C (68°F)
Dewpoint: 5.0°C (41°F) [RH = 37%]
Pressure (altimeter): 29.85 inches Hg (1011.0 mb)
Winds: from the N (10 degrees) at 5 MPH (4 knots; 2.1 m/s)
Visibility: 6 or more miles (10+ km)
Ceiling: ceiling and visibility are OK
Clouds: unknown
Weather: no significant weather observed at this time

METAR text: UTSK 182130Z 00000KT CAVOK 21/04 Q1011 R16/CLRD70
Conditions at: UTSK (KARSHI KHANABAD , UZ) observed 2130 UTC 18 August 2019
Temperature: 21.0°C (70°F)
Dewpoint: 4.0°C (39°F) [RH = 33%]
Pressure (altimeter): 29.85 inches Hg (1011.0 mb)
Winds: calm
Visibility: 6 or more miles (10+ km)
Ceiling: ceiling and visibility are OK
Clouds: unknown
Weather: no significant weather observed at this time

METAR text: UTSK 182100Z 36004KT CAVOK 20/04 Q1011 R16/CLRD70
Conditions at: UTSK (KARSHI KHANABAD , UZ) observed 2100 UTC 18 August 2019
Temperature: 20.0°C (68°F)
Dewpoint: 4.0°C (39°F) [RH = 35%]
Pressure (altimeter): 29.85 inches Hg (1011.0 mb)
Winds: from the N (360 degrees) at 5 MPH (4 knots; 2.1 m/s)
Visibility: 6 or more miles (10+ km)
Ceiling: ceiling and visibility are OK
Clouds: unknown
Weather: no significant weather observed at this time

METAR text: UTSK 182030Z 36004KT CAVOK 21/04 Q1011 R16/CLRD70
Conditions at: UTSK (KARSHI KHANABAD , UZ) observed 2030 UTC 18 August 2019
Temperature: 21.0°C (70°F)
Dewpoint: 4.0°C (39°F) [RH = 33%]
Pressure (altimeter): 29.85 inches Hg (1011.0 mb)
Winds: from the N (360 degrees) at 5 MPH (4 knots; 2.1 m/s)
Visibility: 6 or more miles (10+ km)
Ceiling: ceiling and visibility are OK
Clouds: unknown
Weather: no significant weather observed at this time

METAR text: UTSK 182000Z 35004KT CAVOK 21/04 Q1011 R16/CLRD70
Conditions at: UTSK (KARSHI KHANABAD , UZ) observed 2000 UTC 18 August 2019
Temperature: 21.0°C (70°F)
Dewpoint: 4.0°C (39°F) [RH = 33%]
Pressure (altimeter): 29.85 inches Hg (1011.0 mb)
Winds: from the N (350 degrees) at 5 MPH (4 knots; 2.1 m/s)
Visibility: 6 or more miles (10+ km)
Ceiling: ceiling and visibility are OK
Clouds: unknown
Weather: no significant weather observed at this time

METAR text: UTSK 181930Z 01006KT CAVOK 21/04 Q1012 R16/CLRD70
Conditions at: UTSK (KARSHI KHANABAD , UZ) observed 1930 UTC 18 August 2019
Temperature: 21.0°C (70°F)
Dewpoint: 4.0°C (39°F) [RH = 33%]
Pressure (altimeter): 29.88 inches Hg (1012.0 mb)
Winds: from the N (10 degrees) at 7 MPH (6 knots; 3.1 m/s)
Visibility: 6 or more miles (10+ km)
Ceiling: ceiling and visibility are OK
Clouds: unknown
Weather: no significant weather observed at this time

METAR text: UTSK 181900Z 35004KT CAVOK 21/04 Q1012 R16/CLRD70
Conditions at: UTSK (KARSHI KHANABAD , UZ) observed 1900 UTC 18 August 2019
Temperature: 21.0°C (70°F)
Dewpoint: 4.0°C (39°F) [RH = 33%]
Pressure (altimeter): 29.88 inches Hg (1012.0 mb)
Winds: from the N (350 degrees) at 5 MPH (4 knots; 2.1 m/s)
Visibility: 6 or more miles (10+ km)
Ceiling: ceiling and visibility are OK
Clouds: unknown
Weather: no significant weather observed at this time

METAR text: UTSK 181830Z 35004KT CAVOK 21/04 Q1012 R16/CLRD70
Conditions at: UTSK (KARSHI KHANABAD , UZ) observed 1830 UTC 18 August 2019
Temperature: 21.0°C (70°F)
Dewpoint: 4.0°C (39°F) [RH = 33%]
Pressure (altimeter): 29.88 inches Hg (1012.0 mb)
Winds: from the N (350 degrees) at 5 MPH (4 knots; 2.1 m/s)
Visibility: 6 or more miles (10+ km)
Ceiling: ceiling and visibility are OK
Clouds: unknown
Weather: no significant weather observed at this time

METAR text: UTSK 181800Z 34006KT CAVOK 21/04 Q1012 R16/CLRD70
Conditions at: UTSK (KARSHI KHANABAD , UZ) observed 1800 UTC 18 August 2019
Temperature: 21.0°C (70°F)
Dewpoint: 4.0°C (39°F) [RH = 33%]
Pressure (altimeter): 29.88 inches Hg (1012.0 mb)
Winds: from the NNW (340 degrees) at 7 MPH (6 knots; 3.1 m/s)
Visibility: 6 or more miles (10+ km)
Ceiling: ceiling and visibility are OK
Clouds: unknown
Weather: no significant weather observed at this time

METAR text: UTSK 181730Z 02006KT CAVOK 25/03 Q1012 R34/CLRD70
Conditions at: UTSK (KARSHI KHANABAD , UZ) observed 1730 UTC 18 August 2019
Temperature: 25.0°C (77°F)
Dewpoint: 3.0°C (37°F) [RH = 24%]
Pressure (altimeter): 29.88 inches Hg (1012.0 mb)
Winds: from the NNE (20 degrees) at 7 MPH (6 knots; 3.1 m/s)
Visibility: 6 or more miles (10+ km)
Ceiling: ceiling and visibility are OK
Clouds: unknown
Weather: no significant weather observed at this time

METAR text: UTSK 181700Z 02006KT CAVOK 24/03 Q1012 R34/CLRD70
Conditions at: UTSK (KARSHI KHANABAD , UZ) observed 1700 UTC 18 August 2019
Temperature: 24.0°C (75°F)
Dewpoint: 3.0°C (37°F) [RH = 25%]
Pressure (altimeter): 29.88 inches Hg (1012.0 mb)
Winds: from the NNE (20 degrees) at 7 MPH (6 knots; 3.1 m/s)
Visibility: 6 or more miles (10+ km)
Ceiling: ceiling and visibility are OK
Clouds: unknown
Weather: no significant weather observed at this time

METAR text: UTSK 181630Z 02006KT CAVOK 24/04 Q1012 R34/CLRD70
Conditions at: UTSK (KARSHI KHANABAD , UZ) observed 1630 UTC 18 August 2019
Temperature: 24.0°C (75°F)
Dewpoint: 4.0°C (39°F) [RH = 27%]
Pressure (altimeter): 29.88 inches Hg (1012.0 mb)
Winds: from the NNE (20 degrees) at 7 MPH (6 knots; 3.1 m/s)
Visibility: 6 or more miles (10+ km)
Ceiling: ceiling and visibility are OK
Clouds: unknown
Weather: no significant weather observed at this time

METAR text: UTSK 181600Z 01006KT CAVOK 24/05 Q1012 R34/CLRD70
Conditions at: UTSK (KARSHI KHANABAD , UZ) observed 1600 UTC 18 August 2019
Temperature: 24.0°C (75°F)
Dewpoint: 5.0°C (41°F) [RH = 29%]
Pressure (altimeter): 29.88 inches Hg (1012.0 mb)
Winds: from the N (10 degrees) at 7 MPH (6 knots; 3.1 m/s)
Visibility: 6 or more miles (10+ km)
Ceiling: ceiling and visibility are OK
Clouds: unknown
Weather: no significant weather observed at this time

METAR text: UTSK 181530Z 01008KT CAVOK 28/04 Q1011 R34/CLRD70
Conditions at: UTSK (KARSHI KHANABAD , UZ) observed 1530 UTC 18 August 2019
Temperature: 28.0°C (82°F)
Dewpoint: 4.0°C (39°F) [RH = 22%]
Pressure (altimeter): 29.85 inches Hg (1011.0 mb)
Winds: from the N (10 degrees) at 9 MPH (8 knots; 4.1 m/s)
Visibility: 6 or more miles (10+ km)
Ceiling: ceiling and visibility are OK
Clouds: unknown
Weather: no significant weather observed at this time

METAR text: UTSK 181500Z 01010KT CAVOK 28/04 Q1011 R34/CLRD70
Conditions at: UTSK (KARSHI KHANABAD , UZ) observed 1500 UTC 18 August 2019
Temperature: 28.0°C (82°F)
Dewpoint: 4.0°C (39°F) [RH = 22%]
Pressure (altimeter): 29.85 inches Hg (1011.0 mb)
Winds: from the N (10 degrees) at 12 MPH (10 knots; 5.1 m/s)
Visibility: 6 or more miles (10+ km)
Ceiling: ceiling and visibility are OK
Clouds: unknown
Weather: no significant weather observed at this time

METAR text: UTSK 181430Z 01012KT CAVOK 30/04 Q1011 R34/CLRD70
Conditions at: UTSK (KARSHI KHANABAD , UZ) observed 1430 UTC 18 August 2019
Temperature: 30.0°C (86°F)
Dewpoint: 4.0°C (39°F) [RH = 19%]
Pressure (altimeter): 29.85 inches Hg (1011.0 mb)
Winds: from the N (10 degrees) at 14 MPH (12 knots; 6.2 m/s)
Visibility: 6 or more miles (10+ km)
Ceiling: ceiling and visibility are OK
Clouds: unknown
Weather: no significant weather observed at this time

METAR text: UTSK 181400Z 01014KT CAVOK 30/04 Q1011 R34/CLRD70
Conditions at: UTSK (KARSHI KHANABAD , UZ) observed 1400 UTC 18 August 2019
Temperature: 30.0°C (86°F)
Dewpoint: 4.0°C (39°F) [RH = 19%]
Pressure (altimeter): 29.85 inches Hg (1011.0 mb)
Winds: from the N (10 degrees) at 16 MPH (14 knots; 7.2 m/s)
Visibility: 6 or more miles (10+ km)
Ceiling: ceiling and visibility are OK
Clouds: unknown
Weather: no significant weather observed at this time

METAR text: UTSK 181330Z 36014KT CAVOK 32/04 Q1011 R34/CLRD70
Conditions at: UTSK (KARSHI KHANABAD , UZ) observed 1330 UTC 18 August 2019
Temperature: 32.0°C (90°F)
Dewpoint: 4.0°C (39°F) [RH = 17%]
Pressure (altimeter): 29.85 inches Hg (1011.0 mb)
Winds: from the N (360 degrees) at 16 MPH (14 knots; 7.2 m/s)
Visibility: 6 or more miles (10+ km)
Ceiling: ceiling and visibility are OK
Clouds: unknown
Weather: no significant weather observed at this time

METAR text: UTSK 181300Z 35012KT CAVOK 32/05 Q1011 R16/CLRD70
Conditions at: UTSK (KARSHI KHANABAD , UZ) observed 1300 UTC 18 August 2019
Temperature: 32.0°C (90°F)
Dewpoint: 5.0°C (41°F) [RH = 18%]
Pressure (altimeter): 29.85 inches Hg (1011.0 mb)
Winds: from the N (350 degrees) at 14 MPH (12 knots; 6.2 m/s)
Visibility: 6 or more miles (10+ km)
Ceiling: ceiling and visibility are OK
Clouds: unknown
Weather: no significant weather observed at this time

METAR text: UTSK 181230Z 35012KT CAVOK 33/05 Q1010 R16/CLRD70
Conditions at: UTSK (KARSHI KHANABAD , UZ) observed 1230 UTC 18 August 2019
Temperature: 33.0°C (91°F)
Dewpoint: 5.0°C (41°F) [RH = 17%]
Pressure (altimeter): 29.82 inches Hg (1010.0 mb)
Winds: from the N (350 degrees) at 14 MPH (12 knots; 6.2 m/s)
Visibility: 6 or more miles (10+ km)
Ceiling: ceiling and visibility are OK
Clouds: unknown
Weather: no significant weather observed at this time

METAR text: UTSK 181200Z 34012KT CAVOK 33/05 Q1010 R16/CLRD70
Conditions at: UTSK (KARSHI KHANABAD , UZ) observed 1200 UTC 18 August 2019
Temperature: 33.0°C (91°F)
Dewpoint: 5.0°C (41°F) [RH = 17%]
Pressure (altimeter): 29.82 inches Hg (1010.0 mb)
Winds: from the NNW (340 degrees) at 14 MPH (12 knots; 6.2 m/s)
Visibility: 6 or more miles (10+ km)
Ceiling: ceiling and visibility are OK
Clouds: unknown
Weather: no significant weather observed at this time

METAR text: UTSK 181130Z 35010KT CAVOK 33/03 Q1010 R16/CLRD70
Conditions at: UTSK (KARSHI KHANABAD , UZ) observed 1130 UTC 18 August 2019
Temperature: 33.0°C (91°F)
Dewpoint: 3.0°C (37°F) [RH = 15%]
Pressure (altimeter): 29.82 inches Hg (1010.0 mb)
Winds: from the N (350 degrees) at 12 MPH (10 knots; 5.1 m/s)
Visibility: 6 or more miles (10+ km)
Ceiling: ceiling and visibility are OK
Clouds: unknown
Weather: no significant weather observed at this time

METAR text: UTSK 181100Z 35010KT CAVOK 33/03 Q1010 R16/CLRD70
Conditions at: UTSK (KARSHI KHANABAD , UZ) observed 1100 UTC 18 August 2019
Temperature: 33.0°C (91°F)
Dewpoint: 3.0°C (37°F) [RH = 15%]
Pressure (altimeter): 29.82 inches Hg (1010.0 mb)
Winds: from the N (350 degrees) at 12 MPH (10 knots; 5.1 m/s)
Visibility: 6 or more miles (10+ km)
Ceiling: ceiling and visibility are OK
Clouds: unknown
Weather: no significant weather observed at this time

METAR text: UTSK 181030Z 32006KT 240V360 CAVOK 34/04 Q1010 R16/CLRD70
Conditions at: UTSK (KARSHI KHANABAD , UZ) observed 1030 UTC 18 August 2019
Temperature: 34.0°C (93°F)
Dewpoint: 4.0°C (39°F) [RH = 15%]
Pressure (altimeter): 29.82 inches Hg (1010.0 mb)
Winds: from the NW (320 degrees) at 7 MPH (6 knots; 3.1 m/s)
Visibility: 6 or more miles (10+ km)
Ceiling: ceiling and visibility are OK
Clouds: unknown
Weather: no significant weather observed at this time

METAR text: UTSK 181000Z 34008KT 300V360 CAVOK 34/05 Q1010 R16/CLRD70
Conditions at: UTSK (KARSHI KHANABAD , UZ) observed 1000 UTC 18 August 2019
Temperature: 34.0°C (93°F)
Dewpoint: 5.0°C (41°F) [RH = 16%]
Pressure (altimeter): 29.82 inches Hg (1010.0 mb)
Winds: from the NNW (340 degrees) at 9 MPH (8 knots; 4.1 m/s)
Visibility: 6 or more miles (10+ km)
Ceiling: ceiling and visibility are OK
Clouds: unknown
Weather: no significant weather observed at this time

METAR text: UTSK 180930Z 32006KT 250V360 CAVOK 33/04 Q1010 R16/CLRD70
Conditions at: UTSK (KARSHI KHANABAD , UZ) observed 0930 UTC 18 August 2019
Temperature: 33.0°C (91°F)
Dewpoint: 4.0°C (39°F) [RH = 16%]
Pressure (altimeter): 29.82 inches Hg (1010.0 mb)
Winds: from the NW (320 degrees) at 7 MPH (6 knots; 3.1 m/s)
Visibility: 6 or more miles (10+ km)
Ceiling: ceiling and visibility are OK
Clouds: unknown
Weather: no significant weather observed at this time

METAR text: UTSK 180900Z 32006KT 250V360 CAVOK 33/03 Q1011 R16/CLRD70
Conditions at: UTSK (KARSHI KHANABAD , UZ) observed 0900 UTC 18 August 2019
Temperature: 33.0°C (91°F)
Dewpoint: 3.0°C (37°F) [RH = 15%]
Pressure (altimeter): 29.85 inches Hg (1011.0 mb)
Winds: from the NW (320 degrees) at 7 MPH (6 knots; 3.1 m/s)
Visibility: 6 or more miles (10+ km)
Ceiling: ceiling and visibility are OK
Clouds: unknown
Weather: no significant weather observed at this time

METAR text: UTSK 180830Z 31008KT 270V350 CAVOK 32/04 Q1011 R16/CLRD70
Conditions at: UTSK (KARSHI KHANABAD , UZ) observed 0830 UTC 18 August 2019
Temperature: 32.0°C (90°F)
Dewpoint: 4.0°C (39°F) [RH = 17%]
Pressure (altimeter): 29.85 inches Hg (1011.0 mb)
Winds: from the NW (310 degrees) at 9 MPH (8 knots; 4.1 m/s)
Visibility: 6 or more miles (10+ km)
Ceiling: ceiling and visibility are OK
Clouds: unknown
Weather: no significant weather observed at this time

METAR text: UTSK 180800Z 33006KT 240V360 CAVOK 33/04 Q1011 R16/CLRD70
Conditions at: UTSK (KARSHI KHANABAD , UZ) observed 0800 UTC 18 August 2019
Temperature: 33.0°C (91°F)
Dewpoint: 4.0°C (39°F) [RH = 16%]
Pressure (altimeter): 29.85 inches Hg (1011.0 mb)
Winds: from the NNW (330 degrees) at 7 MPH (6 knots; 3.1 m/s)
Visibility: 6 or more miles (10+ km)
Ceiling: ceiling and visibility are OK
Clouds: unknown
Weather: no significant weather observed at this time

METAR text: UTSK 180730Z 31008KT 280V340 CAVOK 32/05 Q1011 R16/CLRD70
Conditions at: UTSK (KARSHI KHANABAD , UZ) observed 0730 UTC 18 August 2019
Temperature: 32.0°C (90°F)
Dewpoint: 5.0°C (41°F) [RH = 18%]
Pressure (altimeter): 29.85 inches Hg (1011.0 mb)
Winds: from the NW (310 degrees) at 9 MPH (8 knots; 4.1 m/s)
Visibility: 6 or more miles (10+ km)
Ceiling: ceiling and visibility are OK
Clouds: unknown
Weather: no significant weather observed at this time

METAR text: UTSK 180700Z 34008KT CAVOK 32/05 Q1011 R16/CLRD70
Conditions at: UTSK (KARSHI KHANABAD , UZ) observed 0700 UTC 18 August 2019
Temperature: 32.0°C (90°F)
Dewpoint: 5.0°C (41°F) [RH = 18%]
Pressure (altimeter): 29.85 inches Hg (1011.0 mb)
Winds: from the NNW (340 degrees) at 9 MPH (8 knots; 4.1 m/s)
Visibility: 6 or more miles (10+ km)
Ceiling: ceiling and visibility are OK
Clouds: unknown
Weather: no significant weather observed at this time

METAR text: UTSK 180630Z 34008KT CAVOK 31/05 Q1011 R16/CLRD70
Conditions at: UTSK (KARSHI KHANABAD , UZ) observed 0630 UTC 18 August 2019
Temperature: 31.0°C (88°F)
Dewpoint: 5.0°C (41°F) [RH = 19%]
Pressure (altimeter): 29.85 inches Hg (1011.0 mb)
Winds: from the NNW (340 degrees) at 9 MPH (8 knots; 4.1 m/s)
Visibility: 6 or more miles (10+ km)
Ceiling: ceiling and visibility are OK
Clouds: unknown
Weather: no significant weather observed at this time

Forecast for: UTSK (KARSHI KHANABAD , UZ)
Text: TAF UTSK 191750Z 1919/2004 34010KT CAVOK
Forecast period: 1900 UTC 19 August 2019 to 0400 UTC 20 August 2019
Forecast type: FROM: standard forecast or significant change
Winds: from the NNW (340 degrees) at 12 MPH (10 knots; 5.1 m/s)
Visibility: 6 or more miles 10+ km)
Ceiling: unknown
Clouds: missing
Weather: NSW  (no significant weather)